sensor_id;sensor_type;location;lat;lon;timestamp;pressure;altitude;pressure_sealevel;temperature;humidity
4346;BME280;2186;49.866;7.986;2023-07-08T00:00:49;100251.84;;;21.05;61.30
4346;BME280;2186;49.866;7.986;2023-07-08T00:03:17;100253.72;;;20.92;61.76
4346;BME280;2186;49.866;7.986;2023-07-08T00:05:45;100259.47;;;20.87;62.43
4346;BME280;2186;49.866;7.986;2023-07-08T00:08:16;100268.19;;;21.04;61.31
4346;BME280;2186;49.866;7.986;2023-07-08T00:10:43;100263.19;;;21.10;61.57
4346;BME280;2186;49.866;7.986;2023-07-08T00:13:10;100273.59;;;21.04;61.96
4346;BME280;2186;49.866;7.986;2023-07-08T00:15:38;100268.41;;;21.00;61.60
4346;BME280;2186;49.866;7.986;2023-07-08T00:18:13;100272.97;;;21.00;61.35
4346;BME280;2186;49.866;7.986;2023-07-08T00:20:49;100278.03;;;21.05;61.38
4346;BME280;2186;49.866;7.986;2023-07-08T00:23:16;100276.44;;;20.64;62.92
4346;BME280;2186;49.866;7.986;2023-07-08T00:25:43;100276.09;;;20.81;62.67
4346;BME280;2186;49.866;7.986;2023-07-08T00:28:12;100278.16;;;20.65;63.16
4346;BME280;2186;49.866;7.986;2023-07-08T00:30:40;100279.13;;;20.77;62.79
4346;BME280;2186;49.866;7.986;2023-07-08T00:33:06;100281.19;;;20.73;63.29
4346;BME280;2186;49.866;7.986;2023-07-08T00:35:35;100269.94;;;20.54;64.65
4346;BME280;2186;49.866;7.986;2023-07-08T00:41:04;100267.69;;;20.48;64.80
4346;BME280;2186;49.866;7.986;2023-07-08T00:43:38;100267.91;;;20.57;64.67
4346;BME280;2186;49.866;7.986;2023-07-08T00:51:39;100250.53;;;20.09;66.59
4346;BME280;2186;49.866;7.986;2023-07-08T00:54:11;100248.50;;;20.12;67.28
4346;BME280;2186;49.866;7.986;2023-07-08T00:59:23;100256.19;;;20.95;64.98
4346;BME280;2186;49.866;7.986;2023-07-08T01:01:51;100231.47;;;20.88;63.34
4346;BME280;2186;49.866;7.986;2023-07-08T01:04:28;100212.34;;;20.66;64.21
4346;BME280;2186;49.866;7.986;2023-07-08T01:06:58;100181.88;;;20.38;65.11
4346;BME280;2186;49.866;7.986;2023-07-08T01:09:41;100182.63;;;20.28;64.34
4346;BME280;2186;49.866;7.986;2023-07-08T01:12:14;100192.38;;;20.56;63.78
4346;BME280;2186;49.866;7.986;2023-07-08T01:14:42;100211.59;;;20.77;63.26
4346;BME280;2186;49.866;7.986;2023-07-08T01:17:10;100226.44;;;21.08;62.27
4346;BME280;2186;49.866;7.986;2023-07-08T01:19:41;100247.78;;;21.36;60.34
4346;BME280;2186;49.866;7.986;2023-07-08T01:22:09;100254.25;;;21.46;60.07
4346;BME280;2186;49.866;7.986;2023-07-08T01:24:41;100252.41;;;21.71;59.28
4346;BME280;2186;49.866;7.986;2023-07-08T01:27:12;100240.53;;;21.37;60.36
4346;BME280;2186;49.866;7.986;2023-07-08T01:29:39;100240.78;;;21.34;60.15
4346;BME280;2186;49.866;7.986;2023-07-08T01:32:06;100236.09;;;21.36;60.65
4346;BME280;2186;49.866;7.986;2023-07-08T01:34:34;100241.66;;;21.58;61.02
4346;BME280;2186;49.866;7.986;2023-07-08T01:37:04;100249.47;;;21.74;60.32
4346;BME280;2186;49.866;7.986;2023-07-08T01:39:32;100246.66;;;21.51;60.29
4346;BME280;2186;49.866;7.986;2023-07-08T01:41:59;100246.94;;;21.23;61.43
4346;BME280;2186;49.866;7.986;2023-07-08T01:47:06;100248.72;;;21.11;62.43
4346;BME280;2186;49.866;7.986;2023-07-08T01:49:36;100242.50;;;20.85;63.24
4346;BME280;2186;49.866;7.986;2023-07-08T01:52:04;100246.25;;;20.32;65.44
4346;BME280;2186;49.866;7.986;2023-07-08T01:54:31;100235.34;;;20.33;65.77
4346;BME280;2186;49.866;7.986;2023-07-08T01:56:57;100239.25;;;20.67;64.61
4346;BME280;2186;49.866;7.986;2023-07-08T01:59:24;100240.56;;;20.62;64.56
4346;BME280;2186;49.866;7.986;2023-07-08T02:01:51;100242.50;;;20.47;65.39
4346;BME280;2186;49.866;7.986;2023-07-08T02:04:22;100234.06;;;20.52;65.52
4346;BME280;2186;49.866;7.986;2023-07-08T02:06:54;100231.34;;;20.39;66.29
4346;BME280;2186;49.866;7.986;2023-07-08T02:09:21;100223.91;;;20.17;67.20
4346;BME280;2186;49.866;7.986;2023-07-08T02:11:48;100225.91;;;19.88;68.70
4346;BME280;2186;49.866;7.986;2023-07-08T02:14:14;100220.91;;;19.82;69.08
4346;BME280;2186;49.866;7.986;2023-07-08T02:16:41;100213.25;;;19.76;68.95
4346;BME280;2186;49.866;7.986;2023-07-08T02:19:08;100206.56;;;19.81;68.88
4346;BME280;2186;49.866;7.986;2023-07-08T02:21:35;100200.44;;;20.05;67.86
4346;BME280;2186;49.866;7.986;2023-07-08T02:24:02;100199.03;;;20.12;67.32
4346;BME280;2186;49.866;7.986;2023-07-08T02:26:28;100203.47;;;20.26;66.77
4346;BME280;2186;49.866;7.986;2023-07-08T02:28:58;100199.81;;;20.27;67.18
4346;BME280;2186;49.866;7.986;2023-07-08T02:31:26;100206.22;;;20.51;66.00
4346;BME280;2186;49.866;7.986;2023-07-08T02:33:53;100202.09;;;20.71;64.84
4346;BME280;2186;49.866;7.986;2023-07-08T02:36:20;100207.75;;;20.43;66.10
4346;BME280;2186;49.866;7.986;2023-07-08T02:38:47;100205.75;;;20.32;66.81
4346;BME280;2186;49.866;7.986;2023-07-08T02:41:13;100211.25;;;20.18;67.69
4346;BME280;2186;49.866;7.986;2023-07-08T02:43:40;100212.88;;;20.20;67.53
4346;BME280;2186;49.866;7.986;2023-07-08T02:46:06;100207.22;;;19.98;68.22
4346;BME280;2186;49.866;7.986;2023-07-08T02:48:33;100206.94;;;20.28;68.25
4346;BME280;2186;49.866;7.986;2023-07-08T02:51:04;100205.88;;;20.18;68.29
4346;BME280;2186;49.866;7.986;2023-07-08T02:53:31;100209.94;;;20.10;68.40
4346;BME280;2186;49.866;7.986;2023-07-08T02:55:58;100213.09;;;20.04;68.79
4346;BME280;2186;49.866;7.986;2023-07-08T02:58:24;100212.66;;;20.10;68.32
4346;BME280;2186;49.866;7.986;2023-07-08T03:00:52;100216.19;;;19.98;69.17
4346;BME280;2186;49.866;7.986;2023-07-08T03:03:18;100224.53;;;20.21;67.67
4346;BME280;2186;49.866;7.986;2023-07-08T03:05:54;100223.34;;;20.25;67.73
4346;BME280;2186;49.866;7.986;2023-07-08T03:08:20;100234.78;;;20.03;68.77
4346;BME280;2186;49.866;7.986;2023-07-08T03:10:53;100233.28;;;20.24;67.76
4346;BME280;2186;49.866;7.986;2023-07-08T03:13:20;100234.03;;;20.13;67.94
4346;BME280;2186;49.866;7.986;2023-07-08T03:15:46;100237.06;;;20.22;67.62
4346;BME280;2186;49.866;7.986;2023-07-08T03:18:12;100227.75;;;20.13;67.50
4346;BME280;2186;49.866;7.986;2023-07-08T03:20:40;100232.28;;;20.00;68.38
4346;BME280;2186;49.866;7.986;2023-07-08T03:23:06;100231.28;;;20.01;68.49
4346;BME280;2186;49.866;7.986;2023-07-08T03:25:35;100230.31;;;19.89;69.19
4346;BME280;2186;49.866;7.986;2023-07-08T03:28:03;100235.19;;;19.97;68.92
4346;BME280;2186;49.866;7.986;2023-07-08T03:30:32;100239.75;;;20.09;68.22
4346;BME280;2186;49.866;7.986;2023-07-08T03:32:59;100242.22;;;20.12;68.19
4346;BME280;2186;49.866;7.986;2023-07-08T03:35:26;100240.19;;;20.03;67.86
4346;BME280;2186;49.866;7.986;2023-07-08T03:37:52;100244.91;;;19.99;67.81
4346;BME280;2186;49.866;7.986;2023-07-08T03:40:19;100242.53;;;19.95;67.90
4346;BME280;2186;49.866;7.986;2023-07-08T03:42:45;100239.78;;;19.82;68.41
4346;BME280;2186;49.866;7.986;2023-07-08T03:45:12;100243.97;;;19.73;69.70
4346;BME280;2186;49.866;7.986;2023-07-08T03:47:38;100237.69;;;19.60;71.16
4346;BME280;2186;49.866;7.986;2023-07-08T03:50:06;100234.03;;;19.47;71.73
4346;BME280;2186;49.866;7.986;2023-07-08T03:52:33;100248.56;;;19.59;71.75
4346;BME280;2186;49.866;7.986;2023-07-08T03:54:59;100245.56;;;19.63;72.06
4346;BME280;2186;49.866;7.986;2023-07-08T03:57:26;100248.81;;;19.68;71.52
4346;BME280;2186;49.866;7.986;2023-07-08T03:59:53;100254.75;;;19.61;71.53
4346;BME280;2186;49.866;7.986;2023-07-08T04:02:19;100247.66;;;19.85;71.18
4346;BME280;2186;49.866;7.986;2023-07-08T04:04:45;100252.13;;;19.59;71.37
4346;BME280;2186;49.866;7.986;2023-07-08T04:07:13;100248.59;;;19.71;71.01
4346;BME280;2186;49.866;7.986;2023-07-08T04:09:39;100254.00;;;19.71;71.88
4346;BME280;2186;49.866;7.986;2023-07-08T04:12:06;100256.94;;;19.54;72.24
4346;BME280;2186;49.866;7.986;2023-07-08T04:14:32;100255.78;;;19.58;72.32
4346;BME280;2186;49.866;7.986;2023-07-08T04:16:59;100263.88;;;19.58;72.48
4346;BME280;2186;49.866;7.986;2023-07-08T04:19:25;100255.78;;;19.58;71.58
4346;BME280;2186;49.866;7.986;2023-07-08T04:21:53;100258.22;;;19.48;72.68
4346;BME280;2186;49.866;7.986;2023-07-08T04:24:20;100252.59;;;19.51;73.51
4346;BME280;2186;49.866;7.986;2023-07-08T04:26:47;100244.66;;;19.36;74.25
4346;BME280;2186;49.866;7.986;2023-07-08T04:29:19;100247.97;;;19.53;73.95
4346;BME280;2186;49.866;7.986;2023-07-08T04:31:46;100255.06;;;19.69;73.53
4346;BME280;2186;49.866;7.986;2023-07-08T04:34:14;100258.19;;;19.63;73.98
4346;BME280;2186;49.866;7.986;2023-07-08T04:36:41;100256.91;;;19.68;73.71
4346;BME280;2186;49.866;7.986;2023-07-08T04:39:08;100266.94;;;19.66;73.89
4346;BME280;2186;49.866;7.986;2023-07-08T04:41:36;100261.53;;;19.66;75.38
4346;BME280;2186;49.866;7.986;2023-07-08T04:44:07;100251.56;;;19.81;74.05
4346;BME280;2186;49.866;7.986;2023-07-08T04:46:37;100256.09;;;19.80;74.37
4346;BME280;2186;49.866;7.986;2023-07-08T04:49:07;100258.72;;;19.95;74.32
4346;BME280;2186;49.866;7.986;2023-07-08T04:51:36;100256.78;;;19.97;73.60
4346;BME280;2186;49.866;7.986;2023-07-08T04:54:03;100253.47;;;20.06;74.19
4346;BME280;2186;49.866;7.986;2023-07-08T04:56:39;100248.63;;;20.24;73.17
4346;BME280;2186;49.866;7.986;2023-07-08T04:59:11;100259.19;;;20.27;72.96
4346;BME280;2186;49.866;7.986;2023-07-08T05:01:38;100260.84;;;20.42;72.84
4346;BME280;2186;49.866;7.986;2023-07-08T05:06:34;100272.59;;;20.41;73.34
4346;BME280;2186;49.866;7.986;2023-07-08T05:09:01;100264.31;;;20.31;73.17
4346;BME280;2186;49.866;7.986;2023-07-08T05:11:28;100273.84;;;20.50;72.75
4346;BME280;2186;49.866;7.986;2023-07-08T05:13:55;100281.31;;;20.59;72.87
4346;BME280;2186;49.866;7.986;2023-07-08T05:16:22;100285.47;;;20.37;72.38
4346;BME280;2186;49.866;7.986;2023-07-08T05:18:49;100278.72;;;20.45;71.71
4346;BME280;2186;49.866;7.986;2023-07-08T05:21:15;100280.09;;;20.50;70.10
4346;BME280;2186;49.866;7.986;2023-07-08T05:23:43;100283.78;;;20.49;70.86
4346;BME280;2186;49.866;7.986;2023-07-08T05:26:11;100281.94;;;20.50;71.35
4346;BME280;2186;49.866;7.986;2023-07-08T05:28:37;100278.56;;;20.33;70.17
4346;BME280;2186;49.866;7.986;2023-07-08T05:31:04;100277.34;;;20.25;70.49
4346;BME280;2186;49.866;7.986;2023-07-08T05:33:30;100270.44;;;20.33;70.20
4346;BME280;2186;49.866;7.986;2023-07-08T05:35:58;100281.19;;;20.48;70.56
4346;BME280;2186;49.866;7.986;2023-07-08T05:38:25;100274.38;;;20.55;70.14
4346;BME280;2186;49.866;7.986;2023-07-08T05:40:56;100285.78;;;21.09;68.79
4346;BME280;2186;49.866;7.986;2023-07-08T05:43:25;100282.06;;;20.86;69.75
4346;BME280;2186;49.866;7.986;2023-07-08T05:45:52;100284.75;;;20.99;69.53
4346;BME280;2186;49.866;7.986;2023-07-08T05:48:37;100286.03;;;21.06;68.42
4346;BME280;2186;49.866;7.986;2023-07-08T05:51:04;100283.78;;;21.00;68.24
4346;BME280;2186;49.866;7.986;2023-07-08T05:53:30;100285.75;;;21.22;68.19
4346;BME280;2186;49.866;7.986;2023-07-08T05:55:57;100283.72;;;21.62;66.31
4346;BME280;2186;49.866;7.986;2023-07-08T05:58:23;100291.78;;;21.75;65.46
4346;BME280;2186;49.866;7.986;2023-07-08T06:00:56;100292.28;;;22.63;64.22
4346;BME280;2186;49.866;7.986;2023-07-08T06:03:24;100288.38;;;23.00;62.25
4346;BME280;2186;49.866;7.986;2023-07-08T06:05:51;100302.13;;;22.64;63.35
4346;BME280;2186;49.866;7.986;2023-07-08T06:08:19;100304.69;;;22.08;65.04
4346;BME280;2186;49.866;7.986;2023-07-08T06:10:45;100313.44;;;21.99;65.81
4346;BME280;2186;49.866;7.986;2023-07-08T06:13:12;100319.50;;;22.26;65.47
4346;BME280;2186;49.866;7.986;2023-07-08T06:15:39;100326.72;;;22.14;66.57
4346;BME280;2186;49.866;7.986;2023-07-08T06:18:06;100342.59;;;22.43;65.83
4346;BME280;2186;49.866;7.986;2023-07-08T06:20:32;100344.56;;;22.41;65.08
4346;BME280;2186;49.866;7.986;2023-07-08T06:22:59;100342.13;;;22.49;64.94
4346;BME280;2186;49.866;7.986;2023-07-08T06:25:25;100343.69;;;22.40;64.65
4346;BME280;2186;49.866;7.986;2023-07-08T06:27:52;100345.66;;;22.85;64.67
4346;BME280;2186;49.866;7.986;2023-07-08T06:30:20;100354.94;;;23.49;61.95
4346;BME280;2186;49.866;7.986;2023-07-08T06:32:46;100370.13;;;24.17;57.37
4346;BME280;2186;49.866;7.986;2023-07-08T06:35:13;100365.78;;;24.79;55.89
4346;BME280;2186;49.866;7.986;2023-07-08T06:37:40;100372.94;;;25.22;52.86
4346;BME280;2186;49.866;7.986;2023-07-08T06:40:07;100369.75;;;25.37;52.73
4346;BME280;2186;49.866;7.986;2023-07-08T06:42:34;100387.16;;;25.56;51.37
4346;BME280;2186;49.866;7.986;2023-07-08T06:45:00;100377.94;;;25.78;49.40
4346;BME280;2186;49.866;7.986;2023-07-08T06:47:29;100367.66;;;26.01;50.59
4346;BME280;2186;49.866;7.986;2023-07-08T06:49:55;100370.56;;;26.28;47.23
4346;BME280;2186;49.866;7.986;2023-07-08T06:52:25;100380.28;;;25.92;47.76
4346;BME280;2186;49.866;7.986;2023-07-08T06:54:51;100377.91;;;25.37;45.71
4346;BME280;2186;49.866;7.986;2023-07-08T06:57:19;100361.19;;;25.21;47.67
4346;BME280;2186;49.866;7.986;2023-07-08T06:59:45;100362.59;;;25.46;49.75
4346;BME280;2186;49.866;7.986;2023-07-08T07:02:12;100364.03;;;25.81;49.95
4346;BME280;2186;49.866;7.986;2023-07-08T07:04:39;100369.56;;;26.19;48.75
4346;BME280;2186;49.866;7.986;2023-07-08T07:07:06;100364.53;;;26.82;47.25
4346;BME280;2186;49.866;7.986;2023-07-08T07:09:33;100364.13;;;26.68;44.93
4346;BME280;2186;49.866;7.986;2023-07-08T07:12:00;100370.31;;;26.60;43.58
4346;BME280;2186;49.866;7.986;2023-07-08T07:14:26;100363.56;;;26.45;42.58
4346;BME280;2186;49.866;7.986;2023-07-08T07:16:55;100359.97;;;26.54;41.74
4346;BME280;2186;49.866;7.986;2023-07-08T07:19:25;100378.72;;;26.86;41.84
4346;BME280;2186;49.866;7.986;2023-07-08T07:21:51;100376.59;;;26.90;42.21
4346;BME280;2186;49.866;7.986;2023-07-08T07:24:18;100382.50;;;26.75;42.37
4346;BME280;2186;49.866;7.986;2023-07-08T07:26:45;100392.97;;;26.90;43.42
4346;BME280;2186;49.866;7.986;2023-07-08T07:29:15;100382.78;;;27.01;43.55
4346;BME280;2186;49.866;7.986;2023-07-08T07:31:42;100376.56;;;27.09;44.07
4346;BME280;2186;49.866;7.986;2023-07-08T07:34:09;100374.19;;;27.33;41.93
4346;BME280;2186;49.866;7.986;2023-07-08T07:36:36;100371.22;;;27.54;40.24
4346;BME280;2186;49.866;7.986;2023-07-08T07:39:02;100376.69;;;28.09;37.72
4346;BME280;2186;49.866;7.986;2023-07-08T07:41:29;100380.16;;;28.11;35.87
4346;BME280;2186;49.866;7.986;2023-07-08T07:43:55;100377.69;;;28.08;35.88
4346;BME280;2186;49.866;7.986;2023-07-08T07:46:22;100372.81;;;28.12;36.68
4346;BME280;2186;49.866;7.986;2023-07-08T07:48:48;100367.75;;;28.52;35.31
4346;BME280;2186;49.866;7.986;2023-07-08T07:51:15;100364.53;;;28.57;33.46
4346;BME280;2186;49.866;7.986;2023-07-08T07:53:42;100368.34;;;28.82;33.28
4346;BME280;2186;49.866;7.986;2023-07-08T07:56:08;100357.97;;;28.50;33.25
4346;BME280;2186;49.866;7.986;2023-07-08T07:58:34;100366.19;;;28.32;33.68
4346;BME280;2186;49.866;7.986;2023-07-08T08:01:01;100357.66;;;28.35;33.78
4346;BME280;2186;49.866;7.986;2023-07-08T08:03:28;100365.53;;;28.74;32.88
4346;BME280;2186;49.866;7.986;2023-07-08T08:05:54;100357.22;;;29.01;33.34
4346;BME280;2186;49.866;7.986;2023-07-08T08:08:21;100363.22;;;29.31;33.24
4346;BME280;2186;49.866;7.986;2023-07-08T08:10:48;100362.88;;;29.60;32.92
4346;BME280;2186;49.866;7.986;2023-07-08T08:13:15;100361.13;;;29.93;32.38
4346;BME280;2186;49.866;7.986;2023-07-08T08:15:42;100356.94;;;30.31;31.85
4346;BME280;2186;49.866;7.986;2023-07-08T08:18:08;100356.03;;;30.14;31.68
4346;BME280;2186;49.866;7.986;2023-07-08T08:20:35;100357.00;;;29.89;32.42
4346;BME280;2186;49.866;7.986;2023-07-08T08:23:01;100359.34;;;30.42;32.27
4346;BME280;2186;49.866;7.986;2023-07-08T08:25:28;100357.13;;;29.79;31.95
4346;BME280;2186;49.866;7.986;2023-07-08T08:27:54;100361.53;;;29.64;32.93
4346;BME280;2186;49.866;7.986;2023-07-08T08:30:20;100362.25;;;29.40;32.98
4346;BME280;2186;49.866;7.986;2023-07-08T08:32:47;100367.41;;;29.77;32.14
4346;BME280;2186;49.866;7.986;2023-07-08T08:35:14;100370.16;;;29.85;33.14
4346;BME280;2186;49.866;7.986;2023-07-08T08:37:40;100370.03;;;29.53;32.52
4346;BME280;2186;49.866;7.986;2023-07-08T08:40:12;100373.28;;;29.48;33.67
4346;BME280;2186;49.866;7.986;2023-07-08T08:42:43;100373.69;;;29.69;33.79
4346;BME280;2186;49.866;7.986;2023-07-08T08:45:16;100383.41;;;29.56;34.34
4346;BME280;2186;49.866;7.986;2023-07-08T08:47:52;100382.44;;;29.65;34.41
4346;BME280;2186;49.866;7.986;2023-07-08T08:53:04;100369.69;;;29.47;35.00
4346;BME280;2186;49.866;7.986;2023-07-08T08:55:32;100375.41;;;29.70;34.82
4346;BME280;2186;49.866;7.986;2023-07-08T09:00:58;100369.00;;;29.96;33.84
4346;BME280;2186;49.866;7.986;2023-07-08T09:03:33;100367.50;;;29.59;34.30
4346;BME280;2186;49.866;7.986;2023-07-08T09:06:09;100362.69;;;29.53;35.02
4346;BME280;2186;49.866;7.986;2023-07-08T09:08:36;100357.59;;;29.66;34.60
4346;BME280;2186;49.866;7.986;2023-07-08T09:11:19;100353.25;;;29.47;35.37
4346;BME280;2186;49.866;7.986;2023-07-08T09:13:48;100343.78;;;29.84;35.21
4346;BME280;2186;49.866;7.986;2023-07-08T09:16:26;100349.19;;;30.10;35.43
4346;BME280;2186;49.866;7.986;2023-07-08T09:21:47;100344.78;;;30.33;34.53
4346;BME280;2186;49.866;7.986;2023-07-08T09:24:20;100343.75;;;30.59;33.59
4346;BME280;2186;49.866;7.986;2023-07-08T09:26:50;100339.28;;;30.33;33.74
4346;BME280;2186;49.866;7.986;2023-07-08T09:29:18;100328.13;;;30.35;34.28
4346;BME280;2186;49.866;7.986;2023-07-08T09:31:44;100326.59;;;29.74;35.10
4346;BME280;2186;49.866;7.986;2023-07-08T09:34:16;100325.88;;;30.06;34.85
4346;BME280;2186;49.866;7.986;2023-07-08T09:36:47;100326.63;;;30.73;34.93
4346;BME280;2186;49.866;7.986;2023-07-08T09:39:17;100324.03;;;30.88;33.96
4346;BME280;2186;49.866;7.986;2023-07-08T09:41:45;100334.66;;;30.91;34.14
4346;BME280;2186;49.866;7.986;2023-07-08T09:46:43;100321.16;;;31.37;34.41
4346;BME280;2186;49.866;7.986;2023-07-08T09:51:51;100315.97;;;31.50;33.58
4346;BME280;2186;49.866;7.986;2023-07-08T09:54:22;100304.53;;;31.69;33.47
4346;BME280;2186;49.866;7.986;2023-07-08T09:57:15;100304.50;;;31.38;33.40
4346;BME280;2186;49.866;7.986;2023-07-08T09:59:49;100308.31;;;32.07;33.34
4346;BME280;2186;49.866;7.986;2023-07-08T10:02:24;100312.19;;;31.90;33.68
4346;BME280;2186;49.866;7.986;2023-07-08T10:04:54;100313.03;;;31.91;33.44
4346;BME280;2186;49.866;7.986;2023-07-08T10:07:21;100304.78;;;31.91;32.66
4346;BME280;2186;49.866;7.986;2023-07-08T10:09:50;100303.56;;;32.16;33.32
4346;BME280;2186;49.866;7.986;2023-07-08T10:12:17;100303.56;;;31.93;33.47
4346;BME280;2186;49.866;7.986;2023-07-08T10:14:48;100311.06;;;32.07;33.21
4346;BME280;2186;49.866;7.986;2023-07-08T10:17:17;100307.69;;;31.97;34.17
4346;BME280;2186;49.866;7.986;2023-07-08T10:19:45;100302.50;;;32.25;33.61
4346;BME280;2186;49.866;7.986;2023-07-08T10:22:42;100305.19;;;32.33;33.65
4346;BME280;2186;49.866;7.986;2023-07-08T10:25:34;100310.75;;;32.25;33.46
4346;BME280;2186;49.866;7.986;2023-07-08T10:31:06;100301.69;;;32.62;33.21
4346;BME280;2186;49.866;7.986;2023-07-08T10:33:53;100312.75;;;32.77;33.29
4346;BME280;2186;49.866;7.986;2023-07-08T10:36:41;100297.66;;;32.27;33.30
4346;BME280;2186;49.866;7.986;2023-07-08T10:39:44;100301.28;;;31.74;33.86
4346;BME280;2186;49.866;7.986;2023-07-08T10:42:38;100301.25;;;32.05;34.57
4346;BME280;2186;49.866;7.986;2023-07-08T10:45:27;100297.38;;;32.60;33.59
4346;BME280;2186;49.866;7.986;2023-07-08T10:48:09;100298.13;;;32.77;33.36
4346;BME280;2186;49.866;7.986;2023-07-08T10:53:54;100301.19;;;32.13;34.20
4346;BME280;2186;49.866;7.986;2023-07-08T10:56:34;100297.28;;;32.53;34.29
4346;BME280;2186;49.866;7.986;2023-07-08T10:59:30;100296.25;;;32.54;34.07
4346;BME280;2186;49.866;7.986;2023-07-08T11:04:57;100301.94;;;32.53;34.84
4346;BME280;2186;49.866;7.986;2023-07-08T11:07:47;100303.28;;;32.94;34.12
4346;BME280;2186;49.866;7.986;2023-07-08T11:10:29;100298.44;;;33.26;34.21
4346;BME280;2186;49.866;7.986;2023-07-08T11:13:06;100300.63;;;33.16;33.17
4346;BME280;2186;49.866;7.986;2023-07-08T11:21:23;100299.75;;;33.30;33.68
4346;BME280;2186;49.866;7.986;2023-07-08T11:24:05;100297.00;;;33.15;32.58
4346;BME280;2186;49.866;7.986;2023-07-08T11:26:43;100295.50;;;33.42;33.26
4346;BME280;2186;49.866;7.986;2023-07-08T11:29:25;100297.47;;;32.89;33.44
4346;BME280;2186;49.866;7.986;2023-07-08T11:31:55;100296.91;;;33.68;32.89
4346;BME280;2186;49.866;7.986;2023-07-08T11:34:23;100295.53;;;33.93;32.17
4346;BME280;2186;49.866;7.986;2023-07-08T11:36:52;100294.47;;;33.43;32.80
4346;BME280;2186;49.866;7.986;2023-07-08T11:39:39;100293.72;;;33.49;32.69
4346;BME280;2186;49.866;7.986;2023-07-08T11:42:24;100297.00;;;33.30;33.56
4346;BME280;2186;49.866;7.986;2023-07-08T11:44:54;100283.03;;;33.17;33.43
4346;BME280;2186;49.866;7.986;2023-07-08T11:47:26;100288.19;;;33.20;32.96
4346;BME280;2186;49.866;7.986;2023-07-08T11:49:58;100286.38;;;33.42;33.46
4346;BME280;2186;49.866;7.986;2023-07-08T11:52:25;100275.78;;;33.75;32.45
4346;BME280;2186;49.866;7.986;2023-07-08T11:55:03;100279.81;;;33.43;33.17
4346;BME280;2186;49.866;7.986;2023-07-08T11:57:40;100285.06;;;33.08;33.90
4346;BME280;2186;49.866;7.986;2023-07-08T12:00:17;100271.63;;;32.38;34.43
4346;BME280;2186;49.866;7.986;2023-07-08T12:03:19;100275.63;;;33.03;33.86
4346;BME280;2186;49.866;7.986;2023-07-08T12:05:46;100266.34;;;33.48;34.09
4346;BME280;2186;49.866;7.986;2023-07-08T12:08:15;100273.88;;;33.75;33.27
4346;BME280;2186;49.866;7.986;2023-07-08T12:10:52;100261.50;;;33.71;32.71
4346;BME280;2186;49.866;7.986;2023-07-08T12:13:23;100261.47;;;34.01;33.08
4346;BME280;2186;49.866;7.986;2023-07-08T12:15:50;100270.03;;;33.91;32.88
4346;BME280;2186;49.866;7.986;2023-07-08T12:20:56;100265.31;;;33.70;33.20
4346;BME280;2186;49.866;7.986;2023-07-08T12:23:25;100262.41;;;33.57;33.05
4346;BME280;2186;49.866;7.986;2023-07-08T12:25:53;100258.47;;;33.66;32.71
4346;BME280;2186;49.866;7.986;2023-07-08T12:28:21;100250.28;;;33.88;32.37
4346;BME280;2186;49.866;7.986;2023-07-08T12:30:49;100265.25;;;33.85;33.06
4346;BME280;2186;49.866;7.986;2023-07-08T12:33:25;100253.28;;;33.56;32.76
4346;BME280;2186;49.866;7.986;2023-07-08T12:35:55;100247.06;;;33.18;33.23
4346;BME280;2186;49.866;7.986;2023-07-08T12:38:32;100253.22;;;33.20;33.75
4346;BME280;2186;49.866;7.986;2023-07-08T12:41:13;100253.13;;;32.84;33.39
4346;BME280;2186;49.866;7.986;2023-07-08T12:43:40;100247.91;;;33.04;34.49
4346;BME280;2186;49.866;7.986;2023-07-08T12:46:09;100237.41;;;33.44;32.82
4346;BME280;2186;49.866;7.986;2023-07-08T12:48:37;100253.41;;;33.19;33.04
4346;BME280;2186;49.866;7.986;2023-07-08T12:51:06;100238.84;;;33.25;33.58
4346;BME280;2186;49.866;7.986;2023-07-08T12:53:36;100243.25;;;33.19;33.78
4346;BME280;2186;49.866;7.986;2023-07-08T12:56:03;100243.09;;;33.57;33.43
4346;BME280;2186;49.866;7.986;2023-07-08T12:58:32;100247.00;;;33.84;33.49
4346;BME280;2186;49.866;7.986;2023-07-08T13:01:02;100241.78;;;34.32;32.45
4346;BME280;2186;49.866;7.986;2023-07-08T13:03:34;100233.69;;;34.30;32.82
4346;BME280;2186;49.866;7.986;2023-07-08T13:06:02;100240.56;;;33.77;32.77
4346;BME280;2186;49.866;7.986;2023-07-08T13:08:31;100240.09;;;34.09;33.24
4346;BME280;2186;49.866;7.986;2023-07-08T13:11:02;100229.41;;;34.00;32.44
4346;BME280;2186;49.866;7.986;2023-07-08T13:13:38;100229.97;;;34.16;32.99
4346;BME280;2186;49.866;7.986;2023-07-08T13:16:05;100234.16;;;34.12;32.16
4346;BME280;2186;49.866;7.986;2023-07-08T13:18:34;100222.19;;;33.84;32.40
4346;BME280;2186;49.866;7.986;2023-07-08T13:21:02;100230.59;;;33.76;32.20
4346;BME280;2186;49.866;7.986;2023-07-08T13:23:30;100220.63;;;34.17;32.60
4346;BME280;2186;49.866;7.986;2023-07-08T13:25:56;100229.97;;;33.95;32.76
4346;BME280;2186;49.866;7.986;2023-07-08T13:28:29;100233.56;;;33.96;33.04
4346;BME280;2186;49.866;7.986;2023-07-08T13:30:58;100227.09;;;33.67;33.07
4346;BME280;2186;49.866;7.986;2023-07-08T13:33:34;100225.56;;;32.99;33.48
4346;BME280;2186;49.866;7.986;2023-07-08T13:36:02;100228.53;;;32.83;34.00
4346;BME280;2186;49.866;7.986;2023-07-08T13:38:35;100218.84;;;32.87;33.42
4346;BME280;2186;49.866;7.986;2023-07-08T13:41:04;100223.31;;;33.17;34.46
4346;BME280;2186;49.866;7.986;2023-07-08T13:43:34;100210.69;;;33.59;34.28
4346;BME280;2186;49.866;7.986;2023-07-08T13:46:01;100211.72;;;33.94;33.83
4346;BME280;2186;49.866;7.986;2023-07-08T13:48:40;100214.97;;;34.26;33.62
4346;BME280;2186;49.866;7.986;2023-07-08T13:51:16;100208.00;;;34.30;33.46
4346;BME280;2186;49.866;7.986;2023-07-08T13:53:51;100215.81;;;34.48;33.40
4346;BME280;2186;49.866;7.986;2023-07-08T13:56:53;100217.94;;;34.45;33.41
4346;BME280;2186;49.866;7.986;2023-07-08T13:59:26;100221.59;;;34.31;32.69
4346;BME280;2186;49.866;7.986;2023-07-08T14:01:55;100224.44;;;33.95;32.63
4346;BME280;2186;49.866;7.986;2023-07-08T14:04:34;100221.72;;;33.80;32.95
4346;BME280;2186;49.866;7.986;2023-07-08T14:07:00;100213.19;;;33.75;33.09
4346;BME280;2186;49.866;7.986;2023-07-08T14:09:27;100206.34;;;33.86;32.47
4346;BME280;2186;49.866;7.986;2023-07-08T14:11:54;100200.19;;;34.12;33.29